sensor_id;sensor_type;location;lat;lon;timestamp;P1;durP1;ratioP1;P2;durP2;ratioP2
819;SDS011;392;48.838;2.322;2023-01-05T00:01:36;1.20;;;1.10;;
819;SDS011;392;48.838;2.322;2023-01-05T00:04:04;2.60;;;0.90;;
819;SDS011;392;48.838;2.322;2023-01-05T00:06:33;1.00;;;0.90;;
819;SDS011;392;48.838;2.322;2023-01-05T00:09:01;1.23;;;1.13;;
819;SDS011;392;48.838;2.322;2023-01-05T00:11:29;1.07;;;0.80;;
819;SDS011;392;48.838;2.322;2023-01-05T00:14:15;0.97;;;0.83;;
819;SDS011;392;48.838;2.322;2023-01-05T00:17:19;1.00;;;1.00;;
819;SDS011;392;48.838;2.322;2023-01-05T00:20:08;1.17;;;0.93;;
819;SDS011;392;48.838;2.322;2023-01-05T00:22:58;0.73;;;0.73;;
819;SDS011;392;48.838;2.322;2023-01-05T00:25:27;1.10;;;1.10;;
819;SDS011;392;48.838;2.322;2023-01-05T00:27:55;1.23;;;1.00;;
819;SDS011;392;48.838;2.322;2023-01-05T00:30:24;0.90;;;0.90;;
819;SDS011;392;48.838;2.322;2023-01-05T00:32:55;1.10;;;0.90;;
819;SDS011;392;48.838;2.322;2023-01-05T00:35:22;0.70;;;0.70;;
819;SDS011;392;48.838;2.322;2023-01-05T00:37:50;1.30;;;0.83;;
819;SDS011;392;48.838;2.322;2023-01-05T00:40:19;0.90;;;0.90;;
819;SDS011;392;48.838;2.322;2023-01-05T00:42:47;1.10;;;1.00;;
819;SDS011;392;48.838;2.322;2023-01-05T00:45:16;0.67;;;0.67;;
819;SDS011;392;48.838;2.322;2023-01-05T00:47:46;1.27;;;0.90;;
819;SDS011;392;48.838;2.322;2023-01-05T00:50:15;0.73;;;0.73;;
819;SDS011;392;48.838;2.322;2023-01-05T00:52:43;1.00;;;1.00;;
819;SDS011;392;48.838;2.322;2023-01-05T00:55:11;1.20;;;1.10;;
819;SDS011;392;48.838;2.322;2023-01-05T00:57:39;0.97;;;0.97;;
819;SDS011;392;48.838;2.322;2023-01-05T01:00:10;1.10;;;1.00;;
819;SDS011;392;48.838;2.322;2023-01-05T01:02:41;1.10;;;0.77;;
819;SDS011;392;48.838;2.322;2023-01-05T01:05:09;1.30;;;0.97;;
819;SDS011;392;48.838;2.322;2023-01-05T01:07:39;0.93;;;0.83;;
819;SDS011;392;48.838;2.322;2023-01-05T01:10:07;1.03;;;0.80;;
819;SDS011;392;48.838;2.322;2023-01-05T01:12:36;1.37;;;1.27;;
819;SDS011;392;48.838;2.322;2023-01-05T01:15:03;1.20;;;1.00;;
819;SDS011;392;48.838;2.322;2023-01-05T01:17:32;2.87;;;0.83;;
819;SDS011;392;48.838;2.322;2023-01-05T01:19:59;1.47;;;1.10;;
819;SDS011;392;48.838;2.322;2023-01-05T01:22:27;1.90;;;0.70;;
819;SDS011;392;48.838;2.322;2023-01-05T01:24:56;0.80;;;0.80;;
819;SDS011;392;48.838;2.322;2023-01-05T01:27:23;1.20;;;1.00;;
819;SDS011;392;48.838;2.322;2023-01-05T01:29:50;2.77;;;1.27;;
819;SDS011;392;48.838;2.322;2023-01-05T01:32:18;3.00;;;1.10;;
819;SDS011;392;48.838;2.322;2023-01-05T01:34:45;1.00;;;0.97;;
819;SDS011;392;48.838;2.322;2023-01-05T01:37:13;2.03;;;1.10;;
819;SDS011;392;48.838;2.322;2023-01-05T01:39:46;1.50;;;1.10;;
819;SDS011;392;48.838;2.322;2023-01-05T01:42:15;1.30;;;1.13;;
819;SDS011;392;48.838;2.322;2023-01-05T01:47:44;3.13;;;1.40;;
819;SDS011;392;48.838;2.322;2023-01-05T01:50:16;2.50;;;0.90;;
819;SDS011;392;48.838;2.322;2023-01-05T01:52:47;1.30;;;1.10;;
819;SDS011;392;48.838;2.322;2023-01-05T01:55:17;1.63;;;1.10;;
819;SDS011;392;48.838;2.322;2023-01-05T01:57:46;2.07;;;1.00;;
819;SDS011;392;48.838;2.322;2023-01-05T02:00:15;1.90;;;0.97;;
819;SDS011;392;48.838;2.322;2023-01-05T02:02:44;1.87;;;0.90;;
819;SDS011;392;48.838;2.322;2023-01-05T02:05:18;3.90;;;1.20;;
819;SDS011;392;48.838;2.322;2023-01-05T02:07:50;1.87;;;1.10;;
819;SDS011;392;48.838;2.322;2023-01-05T02:10:17;2.30;;;0.90;;
819;SDS011;392;48.838;2.322;2023-01-05T02:13:04;2.90;;;1.23;;
819;SDS011;392;48.838;2.322;2023-01-05T02:15:48;1.67;;;1.30;;
819;SDS011;392;48.838;2.322;2023-01-05T02:18:23;2.43;;;1.30;;
819;SDS011;392;48.838;2.322;2023-01-05T02:21:20;3.03;;;1.27;;
819;SDS011;392;48.838;2.322;2023-01-05T02:24:15;2.13;;;1.10;;
819;SDS011;392;48.838;2.322;2023-01-05T02:30:27;0.90;;;0.90;;
819;SDS011;392;48.838;2.322;2023-01-05T02:33:40;1.67;;;1.00;;
819;SDS011;392;48.838;2.322;2023-01-05T02:36:27;1.50;;;1.00;;
819;SDS011;392;48.838;2.322;2023-01-05T02:39:03;2.40;;;0.93;;
819;SDS011;392;48.838;2.322;2023-01-05T02:41:39;1.37;;;0.90;;
819;SDS011;392;48.838;2.322;2023-01-05T02:44:14;3.17;;;1.30;;
819;SDS011;392;48.838;2.322;2023-01-05T02:46:57;2.20;;;1.13;;
819;SDS011;392;48.838;2.322;2023-01-05T02:49:26;2.10;;;1.00;;
819;SDS011;392;48.838;2.322;2023-01-05T02:51:55;2.97;;;1.50;;
819;SDS011;392;48.838;2.322;2023-01-05T02:54:26;5.47;;;1.40;;
819;SDS011;392;48.838;2.322;2023-01-05T02:57:02;2.40;;;1.10;;
819;SDS011;392;48.838;2.322;2023-01-05T02:59:36;3.60;;;1.33;;
819;SDS011;392;48.838;2.322;2023-01-05T03:02:09;4.10;;;1.50;;
819;SDS011;392;48.838;2.322;2023-01-05T03:04:39;2.50;;;1.80;;
819;SDS011;392;48.838;2.322;2023-01-05T03:07:11;5.57;;;1.50;;
819;SDS011;392;48.838;2.322;2023-01-05T03:09:44;4.53;;;1.80;;
819;SDS011;392;48.838;2.322;2023-01-05T03:12:17;6.33;;;1.80;;
819;SDS011;392;48.838;2.322;2023-01-05T03:15:09;5.37;;;1.50;;
819;SDS011;392;48.838;2.322;2023-01-05T03:17:44;2.60;;;1.37;;
819;SDS011;392;48.838;2.322;2023-01-05T03:20:16;3.13;;;1.57;;
819;SDS011;392;48.838;2.322;2023-01-05T03:22:48;4.53;;;1.57;;
819;SDS011;392;48.838;2.322;2023-01-05T03:25:36;8.50;;;2.00;;
819;SDS011;392;48.838;2.322;2023-01-05T03:28:23;4.10;;;1.80;;
819;SDS011;392;48.838;2.322;2023-01-05T03:31:16;2.30;;;1.10;;
819;SDS011;392;48.838;2.322;2023-01-05T03:34:11;5.30;;;1.20;;
819;SDS011;392;48.838;2.322;2023-01-05T03:37:02;3.80;;;1.27;;
819;SDS011;392;48.838;2.322;2023-01-05T03:39:34;4.57;;;2.00;;
819;SDS011;392;48.838;2.322;2023-01-05T03:42:07;3.03;;;1.23;;
819;SDS011;392;48.838;2.322;2023-01-05T03:44:36;4.50;;;1.70;;
819;SDS011;392;48.838;2.322;2023-01-05T03:47:06;4.97;;;1.13;;
819;SDS011;392;48.838;2.322;2023-01-05T03:49:35;6.83;;;2.10;;
819;SDS011;392;48.838;2.322;2023-01-05T03:52:03;4.77;;;2.50;;
819;SDS011;392;48.838;2.322;2023-01-05T03:54:31;5.17;;;1.77;;
819;SDS011;392;48.838;2.322;2023-01-05T03:56:59;4.33;;;1.73;;
819;SDS011;392;48.838;2.322;2023-01-05T03:59:27;3.03;;;1.63;;
819;SDS011;392;48.838;2.322;2023-01-05T04:01:54;3.27;;;1.30;;
819;SDS011;392;48.838;2.322;2023-01-05T04:04:22;7.53;;;1.60;;
819;SDS011;392;48.838;2.322;2023-01-05T04:06:51;5.13;;;1.77;;
819;SDS011;392;48.838;2.322;2023-01-05T04:09:19;3.23;;;1.20;;
819;SDS011;392;48.838;2.322;2023-01-05T04:11:46;2.87;;;1.17;;
819;SDS011;392;48.838;2.322;2023-01-05T04:14:14;2.97;;;1.37;;
819;SDS011;392;48.838;2.322;2023-01-05T04:16:41;4.30;;;1.43;;
819;SDS011;392;48.838;2.322;2023-01-05T04:19:17;2.33;;;1.30;;
819;SDS011;392;48.838;2.322;2023-01-05T04:21:44;3.30;;;1.70;;
819;SDS011;392;48.838;2.322;2023-01-05T04:24:14;3.27;;;1.70;;
819;SDS011;392;48.838;2.322;2023-01-05T04:26:43;2.53;;;1.00;;
819;SDS011;392;48.838;2.322;2023-01-05T04:29:11;3.63;;;1.53;;
819;SDS011;392;48.838;2.322;2023-01-05T04:31:42;4.70;;;1.30;;
819;SDS011;392;48.838;2.322;2023-01-05T04:34:10;2.83;;;1.80;;
819;SDS011;392;48.838;2.322;2023-01-05T04:36:37;3.03;;;1.40;;
819;SDS011;392;48.838;2.322;2023-01-05T04:39:05;2.83;;;1.30;;
819;SDS011;392;48.838;2.322;2023-01-05T04:41:37;3.33;;;1.20;;
819;SDS011;392;48.838;2.322;2023-01-05T04:44:04;2.93;;;1.30;;
819;SDS011;392;48.838;2.322;2023-01-05T04:46:32;2.80;;;1.23;;
819;SDS011;392;48.838;2.322;2023-01-05T04:49:00;3.23;;;1.30;;
819;SDS011;392;48.838;2.322;2023-01-05T04:51:27;2.57;;;1.40;;
819;SDS011;392;48.838;2.322;2023-01-05T04:53:55;1.37;;;1.00;;
819;SDS011;392;48.838;2.322;2023-01-05T04:56:23;2.20;;;1.10;;
819;SDS011;392;48.838;2.322;2023-01-05T04:58:52;2.97;;;1.10;;
819;SDS011;392;48.838;2.322;2023-01-05T05:01:19;1.30;;;1.20;;
819;SDS011;392;48.838;2.322;2023-01-05T05:03:51;1.70;;;1.00;;
819;SDS011;392;48.838;2.322;2023-01-05T05:06:21;4.17;;;1.30;;
819;SDS011;392;48.838;2.322;2023-01-05T05:08:49;2.77;;;1.53;;
819;SDS011;392;48.838;2.322;2023-01-05T05:11:16;4.30;;;1.60;;
819;SDS011;392;48.838;2.322;2023-01-05T05:13:46;2.30;;;0.90;;
819;SDS011;392;48.838;2.322;2023-01-05T05:16:15;2.47;;;1.00;;
819;SDS011;392;48.838;2.322;2023-01-05T05:18:44;3.17;;;1.10;;
819;SDS011;392;48.838;2.322;2023-01-05T05:21:17;2.63;;;1.10;;
819;SDS011;392;48.838;2.322;2023-01-05T05:23:44;1.30;;;1.20;;
819;SDS011;392;48.838;2.322;2023-01-05T05:26:12;2.50;;;1.17;;
819;SDS011;392;48.838;2.322;2023-01-05T05:28:43;2.00;;;1.03;;
819;SDS011;392;48.838;2.322;2023-01-05T05:31:10;2.00;;;0.90;;
819;SDS011;392;48.838;2.322;2023-01-05T05:33:39;2.37;;;1.30;;
819;SDS011;392;48.838;2.322;2023-01-05T05:36:07;2.77;;;1.20;;
819;SDS011;392;48.838;2.322;2023-01-05T05:38:35;1.23;;;1.10;;
819;SDS011;392;48.838;2.322;2023-01-05T05:41:02;1.80;;;1.00;;
819;SDS011;392;48.838;2.322;2023-01-05T05:43:29;2.67;;;1.07;;
819;SDS011;392;48.838;2.322;2023-01-05T05:45:57;1.27;;;0.77;;
819;SDS011;392;48.838;2.322;2023-01-05T05:48:24;2.07;;;1.00;;
819;SDS011;392;48.838;2.322;2023-01-05T05:50:53;3.20;;;1.33;;
819;SDS011;392;48.838;2.322;2023-01-05T05:53:20;1.33;;;1.07;;
819;SDS011;392;48.838;2.322;2023-01-05T05:55:48;2.30;;;1.00;;
819;SDS011;392;48.838;2.322;2023-01-05T05:58:16;2.50;;;0.80;;
819;SDS011;392;48.838;2.322;2023-01-05T06:00:44;3.50;;;0.90;;
819;SDS011;392;48.838;2.322;2023-01-05T06:03:12;2.30;;;0.90;;
819;SDS011;392;48.838;2.322;2023-01-05T06:05:39;1.93;;;1.10;;
819;SDS011;392;48.838;2.322;2023-01-05T06:08:08;2.60;;;1.20;;
819;SDS011;392;48.838;2.322;2023-01-05T06:10:35;1.00;;;0.90;;
819;SDS011;392;48.838;2.322;2023-01-05T06:13:03;1.30;;;0.70;;
819;SDS011;392;48.838;2.322;2023-01-05T06:15:31;1.60;;;0.70;;
819;SDS011;392;48.838;2.322;2023-01-05T06:17:58;3.70;;;1.43;;
819;SDS011;392;48.838;2.322;2023-01-05T06:20:25;2.00;;;1.23;;
819;SDS011;392;48.838;2.322;2023-01-05T06:22:53;1.60;;;1.00;;
819;SDS011;392;48.838;2.322;2023-01-05T06:25:21;6.33;;;1.50;;
819;SDS011;392;48.838;2.322;2023-01-05T06:27:49;2.47;;;1.27;;
819;SDS011;392;48.838;2.322;2023-01-05T06:30:16;1.50;;;1.23;;
819;SDS011;392;48.838;2.322;2023-01-05T06:32:44;2.77;;;1.20;;
819;SDS011;392;48.838;2.322;2023-01-05T06:35:11;3.53;;;1.10;;
819;SDS011;392;48.838;2.322;2023-01-05T06:37:39;1.80;;;1.20;;
819;SDS011;392;48.838;2.322;2023-01-05T06:40:06;3.00;;;1.10;;
819;SDS011;392;48.838;2.322;2023-01-05T06:42:37;2.40;;;1.00;;
819;SDS011;392;48.838;2.322;2023-01-05T06:45:06;1.97;;;1.00;;
819;SDS011;392;48.838;2.322;2023-01-05T06:47:35;1.67;;;1.00;;
819;SDS011;392;48.838;2.322;2023-01-05T06:50:02;3.13;;;0.80;;
819;SDS011;392;48.838;2.322;2023-01-05T06:52:31;3.10;;;0.87;;
819;SDS011;392;48.838;2.322;2023-01-05T06:55:01;1.83;;;1.00;;
819;SDS011;392;48.838;2.322;2023-01-05T06:57:28;1.10;;;0.77;;
819;SDS011;392;48.838;2.322;2023-01-05T06:59:57;0.90;;;0.90;;
819;SDS011;392;48.838;2.322;2023-01-05T07:02:24;1.07;;;1.00;;
819;SDS011;392;48.838;2.322;2023-01-05T07:04:52;4.50;;;1.20;;
819;SDS011;392;48.838;2.322;2023-01-05T07:07:19;1.10;;;1.10;;
819;SDS011;392;48.838;2.322;2023-01-05T07:09:46;2.67;;;1.80;;
819;SDS011;392;48.838;2.322;2023-01-05T07:12:14;2.50;;;1.50;;
819;SDS011;392;48.838;2.322;2023-01-05T07:14:41;0.87;;;0.87;;
819;SDS011;392;48.838;2.322;2023-01-05T07:17:10;1.27;;;1.17;;
819;SDS011;392;48.838;2.322;2023-01-05T07:19:38;1.53;;;1.20;;
819;SDS011;392;48.838;2.322;2023-01-05T07:22:05;2.63;;;1.00;;
819;SDS011;392;48.838;2.322;2023-01-05T07:24:33;1.47;;;1.10;;
819;SDS011;392;48.838;2.322;2023-01-05T07:27:00;2.20;;;1.33;;
819;SDS011;392;48.838;2.322;2023-01-05T07:29:28;1.63;;;1.20;;
819;SDS011;392;48.838;2.322;2023-01-05T07:31:55;1.30;;;1.00;;
819;SDS011;392;48.838;2.322;2023-01-05T07:34:24;1.20;;;1.10;;
819;SDS011;392;48.838;2.322;2023-01-05T07:36:51;1.73;;;1.20;;
819;SDS011;392;48.838;2.322;2023-01-05T07:39:19;2.60;;;1.00;;
819;SDS011;392;48.838;2.322;2023-01-05T07:41:46;2.20;;;1.17;;
819;SDS011;392;48.838;2.322;2023-01-05T07:44:15;2.13;;;1.17;;
819;SDS011;392;48.838;2.322;2023-01-05T07:46:42;1.20;;;1.20;;
819;SDS011;392;48.838;2.322;2023-01-05T07:49:10;1.63;;;1.13;;
819;SDS011;392;48.838;2.322;2023-01-05T07:51:39;1.43;;;1.27;;
819;SDS011;392;48.838;2.322;2023-01-05T07:54:06;1.83;;;1.20;;
819;SDS011;392;48.838;2.322;2023-01-05T07:56:34;1.93;;;1.20;;
819;SDS011;392;48.838;2.322;2023-01-05T07:59:01;1.47;;;1.20;;
819;SDS011;392;48.838;2.322;2023-01-05T08:01:29;1.60;;;1.30;;
819;SDS011;392;48.838;2.322;2023-01-05T08:03:56;2.30;;;1.93;;
819;SDS011;392;48.838;2.322;2023-01-05T08:06:24;1.67;;;1.57;;
819;SDS011;392;48.838;2.322;2023-01-05T08:08:52;3.10;;;1.90;;
819;SDS011;392;48.838;2.322;2023-01-05T08:11:22;2.43;;;2.10;;
819;SDS011;392;48.838;2.322;2023-01-05T08:13:49;1.97;;;1.50;;
819;SDS011;392;48.838;2.322;2023-01-05T08:16:26;2.67;;;1.70;;
819;SDS011;392;48.838;2.322;2023-01-05T08:18:55;1.90;;;1.53;;
819;SDS011;392;48.838;2.322;2023-01-05T08:21:24;1.50;;;1.40;;
819;SDS011;392;48.838;2.322;2023-01-05T08:23:52;1.13;;;1.13;;
819;SDS011;392;48.838;2.322;2023-01-05T08:26:22;4.20;;;1.80;;
819;SDS011;392;48.838;2.322;2023-01-05T08:28:49;1.70;;;1.60;;
819;SDS011;392;48.838;2.322;2023-01-05T08:31:18;2.23;;;1.87;;
819;SDS011;392;48.838;2.322;2023-01-05T08:33:48;1.40;;;1.30;;
819;SDS011;392;48.838;2.322;2023-01-05T08:36:17;1.60;;;1.50;;
819;SDS011;392;48.838;2.322;2023-01-05T08:38:45;1.63;;;1.37;;
819;SDS011;392;48.838;2.322;2023-01-05T08:41:18;22.73;;;4.83;;
819;SDS011;392;48.838;2.322;2023-01-05T08:43:49;1.93;;;1.70;;
819;SDS011;392;48.838;2.322;2023-01-05T08:46:19;2.83;;;1.63;;
819;SDS011;392;48.838;2.322;2023-01-05T08:48:48;2.00;;;1.43;;
819;SDS011;392;48.838;2.322;2023-01-05T08:51:16;2.40;;;1.63;;
819;SDS011;392;48.838;2.322;2023-01-05T08:53:44;3.47;;;1.80;;
819;SDS011;392;48.838;2.322;2023-01-05T08:56:12;1.53;;;1.43;;
819;SDS011;392;48.838;2.322;2023-01-05T08:58:41;1.50;;;1.40;;
819;SDS011;392;48.838;2.322;2023-01-05T09:01:09;1.70;;;1.60;;
819;SDS011;392;48.838;2.322;2023-01-05T09:03:38;1.70;;;1.60;;
819;SDS011;392;48.838;2.322;2023-01-05T09:06:06;1.60;;;1.50;;
819;SDS011;392;48.838;2.322;2023-01-05T09:08:36;1.90;;;1.80;;
819;SDS011;392;48.838;2.322;2023-01-05T09:11:05;2.70;;;1.60;;
819;SDS011;392;48.838;2.322;2023-01-05T09:13:33;2.07;;;1.80;;
819;SDS011;392;48.838;2.322;2023-01-05T09:16:06;4.20;;;1.50;;
819;SDS011;392;48.838;2.322;2023-01-05T09:18:37;1.50;;;1.40;;
819;SDS011;392;48.838;2.322;2023-01-05T09:21:07;1.60;;;1.50;;
819;SDS011;392;48.838;2.322;2023-01-05T09:23:35;1.40;;;1.23;;
819;SDS011;392;48.838;2.322;2023-01-05T09:26:04;1.37;;;1.27;;
819;SDS011;392;48.838;2.322;2023-01-05T09:28:33;1.60;;;1.50;;
819;SDS011;392;48.838;2.322;2023-01-05T09:31:06;1.73;;;1.33;;
819;SDS011;392;48.838;2.322;2023-01-05T09:33:34;1.40;;;1.30;;
819;SDS011;392;48.838;2.322;2023-01-05T09:36:02;2.30;;;1.20;;
819;SDS011;392;48.838;2.322;2023-01-05T09:38:30;1.30;;;1.20;;
819;SDS011;392;48.838;2.322;2023-01-05T09:40:59;1.40;;;1.33;;
819;SDS011;392;48.838;2.322;2023-01-05T09:43:33;1.60;;;1.40;;
819;SDS011;392;48.838;2.322;2023-01-05T09:46:04;1.00;;;1.00;;
819;SDS011;392;48.838;2.322;2023-01-05T09:48:38;1.60;;;1.50;;
819;SDS011;392;48.838;2.322;2023-01-05T09:51:07;1.60;;;1.23;;
819;SDS011;392;48.838;2.322;2023-01-05T09:53:35;1.70;;;1.60;;
819;SDS011;392;48.838;2.322;2023-01-05T09:56:03;1.60;;;1.30;;
819;SDS011;392;48.838;2.322;2023-01-05T09:58:33;1.00;;;1.00;;
819;SDS011;392;48.838;2.322;2023-01-05T10:01:09;1.23;;;1.13;;
819;SDS011;392;48.838;2.322;2023-01-05T10:03:43;1.30;;;1.20;;
819;SDS011;392;48.838;2.322;2023-01-05T10:06:19;1.40;;;1.30;;
819;SDS011;392;48.838;2.322;2023-01-05T10:08:52;1.40;;;1.33;;
819;SDS011;392;48.838;2.322;2023-01-05T10:11:22;1.23;;;1.17;;
819;SDS011;392;48.838;2.322;2023-01-05T10:14:16;1.30;;;1.20;;
819;SDS011;392;48.838;2.322;2023-01-05T10:16:50;1.50;;;1.40;;
819;SDS011;392;48.838;2.322;2023-01-05T10:19:18;1.20;;;1.00;;
819;SDS011;392;48.838;2.322;2023-01-05T10:21:50;1.50;;;1.33;;
819;SDS011;392;48.838;2.322;2023-01-05T10:24:27;1.70;;;1.47;;
819;SDS011;392;48.838;2.322;2023-01-05T10:27:06;1.53;;;1.20;;
819;SDS011;392;48.838;2.322;2023-01-05T10:29:42;1.30;;;1.20;;
819;SDS011;392;48.838;2.322;2023-01-05T10:32:16;1.80;;;1.70;;
819;SDS011;392;48.838;2.322;2023-01-05T10:34:54;1.67;;;1.50;;
819;SDS011;392;48.838;2.322;2023-01-05T10:37:36;1.40;;;1.30;;
819;SDS011;392;48.838;2.322;2023-01-05T10:40:25;1.50;;;1.40;;
819;SDS011;392;48.838;2.322;2023-01-05T10:43:11;2.20;;;1.30;;
819;SDS011;392;48.838;2.322;2023-01-05T10:46:00;1.40;;;1.30;;
819;SDS011;392;48.838;2.322;2023-01-05T10:48:30;3.00;;;1.40;;
819;SDS011;392;48.838;2.322;2023-01-05T10:51:01;2.30;;;1.67;;
819;SDS011;392;48.838;2.322;2023-01-05T10:53:32;2.03;;;1.90;;
819;SDS011;392;48.838;2.322;2023-01-05T10:56:03;1.90;;;1.33;;
819;SDS011;392;48.838;2.322;2023-01-05T10:58:32;1.60;;;1.50;;
819;SDS011;392;48.838;2.322;2023-01-05T11:01:03;2.70;;;1.90;;
819;SDS011;392;48.838;2.322;2023-01-05T11:03:42;2.77;;;1.47;;
819;SDS011;392;48.838;2.322;2023-01-05T11:06:17;1.50;;;1.40;;
819;SDS011;392;48.838;2.322;2023-01-05T11:08:47;1.60;;;1.20;;
819;SDS011;392;48.838;2.322;2023-01-05T11:11:19;1.47;;;1.37;;
819;SDS011;392;48.838;2.322;2023-01-05T11:13:50;1.37;;;1.27;;
819;SDS011;392;48.838;2.322;2023-01-05T11:16:21;1.20;;;1.20;;
819;SDS011;392;48.838;2.322;2023-01-05T11:18:53;1.53;;;1.43;;
819;SDS011;392;48.838;2.322;2023-01-05T11:21:24;0.73;;;0.73;;
819;SDS011;392;48.838;2.322;2023-01-05T11:23:53;1.70;;;1.60;;
819;SDS011;392;48.838;2.322;2023-01-05T11:29:01;1.63;;;1.63;;
819;SDS011;392;48.838;2.322;2023-01-05T11:31:43;1.30;;;1.20;;
819;SDS011;392;48.838;2.322;2023-01-05T11:34:16;1.60;;;1.50;;
819;SDS011;392;48.838;2.322;2023-01-05T11:36:57;2.37;;;2.00;;
819;SDS011;392;48.838;2.322;2023-01-05T11:39:27;2.00;;;1.40;;
819;SDS011;392;48.838;2.322;2023-01-05T11:44:56;2.03;;;1.83;;
819;SDS011;392;48.838;2.322;2023-01-05T11:47:27;2.40;;;2.00;;
819;SDS011;392;48.838;2.322;2023-01-05T11:49:59;1.67;;;1.60;;
819;SDS011;392;48.838;2.322;2023-01-05T11:52:32;1.50;;;1.40;;
819;SDS011;392;48.838;2.322;2023-01-05T11:58:20;3.40;;;2.60;;
819;SDS011;392;48.838;2.322;2023-01-05T12:00:52;2.00;;;1.90;;
819;SDS011;392;48.838;2.322;2023-01-05T12:07:07;1.10;;;1.10;;
819;SDS011;392;48.838;2.322;2023-01-05T12:09:49;3.17;;;1.90;;
819;SDS011;392;48.838;2.322;2023-01-05T12:15:27;1.80;;;1.70;;
819;SDS011;392;48.838;2.322;2023-01-05T12:18:20;1.57;;;1.47;;
819;SDS011;392;48.838;2.322;2023-01-05T12:21:28;3.13;;;1.77;;
819;SDS011;392;48.838;2.322;2023-01-05T12:24:22;5.50;;;3.20;;
819;SDS011;392;48.838;2.322;2023-01-05T12:27:16;1.57;;;1.47;;
819;SDS011;392;48.838;2.322;2023-01-05T12:30:19;1.77;;;1.63;;
819;SDS011;392;48.838;2.322;2023-01-05T12:33:00;2.37;;;2.17;;
819;SDS011;392;48.838;2.322;2023-01-05T12:38:52;1.53;;;1.10;;
819;SDS011;392;48.838;2.322;2023-01-05T12:41:43;1.57;;;1.47;;
819;SDS011;392;48.838;2.322;2023-01-05T12:44:28;1.90;;;1.80;;
819;SDS011;392;48.838;2.322;2023-01-05T12:47:32;1.97;;;1.70;;
819;SDS011;392;48.838;2.322;2023-01-05T12:50:26;1.40;;;1.30;;
819;SDS011;392;48.838;2.322;2023-01-05T12:53:01;1.63;;;1.20;;
819;SDS011;392;48.838;2.322;2023-01-05T12:55:41;2.40;;;1.40;;
819;SDS011;392;48.838;2.322;2023-01-05T12:58:16;4.53;;;1.60;;
819;SDS011;392;48.838;2.322;2023-01-05T13:00:49;1.40;;;1.40;;
819;SDS011;392;48.838;2.322;2023-01-05T13:03:20;1.70;;;1.60;;
819;SDS011;392;48.838;2.322;2023-01-05T13:05:55;2.40;;;2.30;;
819;SDS011;392;48.838;2.322;2023-01-05T13:08:29;3.50;;;2.17;;
819;SDS011;392;48.838;2.322;2023-01-05T13:11:05;3.10;;;2.80;;
819;SDS011;392;48.838;2.322;2023-01-05T13:13:43;2.17;;;1.97;;
819;SDS011;392;48.838;2.322;2023-01-05T13:16:15;1.57;;;1.47;;
819;SDS011;392;48.838;2.322;2023-01-05T13:18:47;1.63;;;1.53;;
819;SDS011;392;48.838;2.322;2023-01-05T13:21:20;1.70;;;1.70;;
819;SDS011;392;48.838;2.322;2023-01-05T13:23:50;2.17;;;2.07;;
819;SDS011;392;48.838;2.322;2023-01-05T13:26:21;2.23;;;1.93;;
819;SDS011;392;48.838;2.322;2023-01-05T13:28:51;2.10;;;2.00;;
819;SDS011;392;48.838;2.322;2023-01-05T13:37:40;2.53;;;2.20;;
819;SDS011;392;48.838;2.322;2023-01-05T13:40:57;1.50;;;1.40;;
819;SDS011;392;48.838;2.322;2023-01-05T13:43:46;3.13;;;2.47;;
819;SDS011;392;48.838;2.322;2023-01-05T13:46:42;2.10;;;1.90;;
819;SDS011;392;48.838;2.322;2023-01-05T13:49:27;2.50;;;1.70;;
819;SDS011;392;48.838;2.322;2023-01-05T13:52:33;2.07;;;1.80;;
819;SDS011;392;48.838;2.322;2023-01-05T13:55:18;3.17;;;2.70;;
819;SDS011;392;48.838;2.322;2023-01-05T13:57:47;2.87;;;2.67;;
819;SDS011;392;48.838;2.322;2023-01-05T14:00:21;2.33;;;2.20;;
819;SDS011;392;48.838;2.322;2023-01-05T14:02:56;2.33;;;2.13;;
819;SDS011;392;48.838;2.322;2023-01-05T14:05:32;1.83;;;1.70;;
819;SDS011;392;48.838;2.322;2023-01-05T14:08:15;1.57;;;1.47;;
819;SDS011;392;48.838;2.322;2023-01-05T14:13:43;2.73;;;2.53;;
819;SDS011;392;48.838;2.322;2023-01-05T14:19:24;1.97;;;1.77;;
819;SDS011;392;48.838;2.322;2023-01-05T14:22:24;3.80;;;1.90;;
819;SDS011;392;48.838;2.322;2023-01-05T14:28:19;2.17;;;1.47;;
819;SDS011;392;48.838;2.322;2023-01-05T14:34:11;2.10;;;1.73;;
819;SDS011;392;48.838;2.322;2023-01-05T14:36:44;2.83;;;1.20;;
819;SDS011;392;48.838;2.322;2023-01-05T14:39:25;1.20;;;1.20;;
819;SDS011;392;48.838;2.322;2023-01-05T14:42:01;2.97;;;1.60;;
819;SDS011;392;48.838;2.322;2023-01-05T14:44:33;1.70;;;1.60;;
819;SDS011;392;48.838;2.322;2023-01-05T14:47:07;10.57;;;3.20;;
819;SDS011;392;48.838;2.322;2023-01-05T14:49:39;5.63;;;2.50;;
819;SDS011;392;48.838;2.322;2023-01-05T14:52:50;4.67;;;1.60;;
819;SDS011;392;48.838;2.322;2023-01-05T14:55:24;1.47;;;1.37;;
819;SDS011;392;48.838;2.322;2023-01-05T14:57:55;1.43;;;1.33;;
819;SDS011;392;48.838;2.322;2023-01-05T15:03:17;1.50;;;1.40;;
819;SDS011;392;48.838;2.322;2023-01-05T15:05:54;4.83;;;3.70;;
819;SDS011;392;48.838;2.322;2023-01-05T15:08:39;1.67;;;1.57;;
819;SDS011;392;48.838;2.322;2023-01-05T15:14:38;1.60;;;1.50;;
819;SDS011;392;48.838;2.322;2023-01-05T15:17:36;3.13;;;2.93;;
819;SDS011;392;48.838;2.322;2023-01-05T15:20:26;1.30;;;1.20;;
819;SDS011;392;48.838;2.322;2023-01-05T15:23:34;2.47;;;2.37;;
819;SDS011;392;48.838;2.322;2023-01-05T15:26:26;4.53;;;2.90;;
819;SDS011;392;48.838;2.322;2023-01-05T15:29:16;2.73;;;2.07;;
819;SDS011;392;48.838;2.322;2023-01-05T15:32:09;2.80;;;2.37;;
819;SDS011;392;48.838;2.322;2023-01-05T15:34:43;1.50;;;1.40;;
819;SDS011;392;48.838;2.322;2023-01-05T15:37:14;2.90;;;2.70;;
819;SDS011;392;48.838;2.322;2023-01-05T15:39:49;2.43;;;2.20;;
819;SDS011;392;48.838;2.322;2023-01-05T15:42:19;5.30;;;4.40;;
819;SDS011;392;48.838;2.322;2023-01-05T15:44:50;4.30;;;3.90;;
819;SDS011;392;48.838;2.322;2023-01-05T15:47:19;6.13;;;5.63;;
819;SDS011;392;48.838;2.322;2023-01-05T15:49:53;2.77;;;2.10;;
819;SDS011;392;48.838;2.322;2023-01-05T15:52:23;3.50;;;3.20;;
819;SDS011;392;48.838;2.322;2023-01-05T15:55:10;2.20;;;1.87;;
819;SDS011;392;48.838;2.322;2023-01-05T15:57:40;4.70;;;4.10;;
819;SDS011;392;48.838;2.322;2023-01-05T16:00:15;4.27;;;3.10;;
819;SDS011;392;48.838;2.322;2023-01-05T16:02:46;2.13;;;1.93;;
819;SDS011;392;48.838;2.322;2023-01-05T16:05:15;5.43;;;5.00;;
819;SDS011;392;48.838;2.322;2023-01-05T16:07:46;4.83;;;4.43;;
819;SDS011;392;48.838;2.322;2023-01-05T16:10:22;6.70;;;6.27;;
819;SDS011;392;48.838;2.322;2023-01-05T16:12:55;6.43;;;5.43;;
819;SDS011;392;48.838;2.322;2023-01-05T16:15:28;8.27;;;7.57;;
819;SDS011;392;48.838;2.322;2023-01-05T16:17:59;2.50;;;2.30;;
819;SDS011;392;48.838;2.322;2023-01-05T16:20:30;1.40;;;1.30;;
819;SDS011;392;48.838;2.322;2023-01-05T16:22:59;2.63;;;2.43;;
819;SDS011;392;48.838;2.322;2023-01-05T16:25:33;2.13;;;2.03;;
819;SDS011;392;48.838;2.322;2023-01-05T16:28:07;4.83;;;3.40;;
819;SDS011;392;48.838;2.322;2023-01-05T16:30:42;2.70;;;1.90;;
819;SDS011;392;48.838;2.322;2023-01-05T16:33:19;2.00;;;1.73;;
819;SDS011;392;48.838;2.322;2023-01-05T16:36:09;2.00;;;1.70;;
819;SDS011;392;48.838;2.322;2023-01-05T16:38:43;2.93;;;1.80;;
819;SDS011;392;48.838;2.322;2023-01-05T16:41:22;3.53;;;2.70;;
819;SDS011;392;48.838;2.322;2023-01-05T16:43:52;3.87;;;2.30;;
819;SDS011;392;48.838;2.322;2023-01-05T16:51:58;3.80;;;3.10;;
819;SDS011;392;48.838;2.322;2023-01-05T16:54:27;2.43;;;2.23;;
819;SDS011;392;48.838;2.322;2023-01-05T16:59:59;6.20;;;5.60;;
819;SDS011;392;48.838;2.322;2023-01-05T17:02:41;25.03;;;22.80;;
819;SDS011;392;48.838;2.322;2023-01-05T17:05:14;7.67;;;6.97;;
819;SDS011;392;48.838;2.322;2023-01-05T17:07:47;13.90;;;12.83;;
819;SDS011;392;48.838;2.322;2023-01-05T17:10:19;24.77;;;22.87;;
819;SDS011;392;48.838;2.322;2023-01-05T17:12:55;8.10;;;7.60;;
819;SDS011;392;48.838;2.322;2023-01-05T17:15:26;13.10;;;12.20;;
819;SDS011;392;48.838;2.322;2023-01-05T17:17:57;17.63;;;16.23;;
819;SDS011;392;48.838;2.322;2023-01-05T17:20:26;24.47;;;22.33;;
819;SDS011;392;48.838;2.322;2023-01-05T17:23:00;4.70;;;4.30;;